Home   Weather   USA   Cumming   Past weeks
Flag for USA

Past Weather in Cumming, Georgia, USA — Yesterday and Last 2 Weeks

Currently: 71 °F. Clear. (Weather station: Gilmer Memorial Airport, USA). See more current weather

Past Weather in Cumming — Graph

°F

Cumming Temperature Yesterday

Maximum temperature yesterday: 81 °F (at 7:53 pm)
Minimum temperature yesterday: 67 °F (at 12:00 am)
Average temperature yesterday: 72 °F

High & Low Weather Summary for the Past Weeks

 TemperatureHumidityPressure
High90 °F (Jun 12, 4:53 pm)93% (Jun 7, 4:35 am)30.22 "Hg (Jun 7, 4:35 am)
Low63 °F (Jun 16, 4:53 am)23% (Jun 15, 2:53 pm)29.74 "Hg (Jun 12, 4:53 pm)
Average75 °F74%29.99 "Hg
* Reported Jun 6 2:53 am — Jun 21 2:53 am, Cumming. Weather by CustomWeather, © 2021

Note: Actual official high and low records may vary slightly from our data, if they occured in-between our weather recording intervals... More about our weather records

Cumming Weather History for the Previous 24 Hours

Scroll right to see more
 ConditionsComfort  
Time TempWeatherWind HumidityBarometerVisibility
2:53 am
Mon, Jun 21
72 °FClear.7 mph87%29.87 "Hg10 mi
1:53 am73 °FClear.8 mph84%29.87 "Hg10 mi
12:53 am73 °FClear.7 mph84%29.88 "Hg10 mi
11:53 pm
Sun, Jun 20
75 °FClear.7 mph79%29.88 "Hg10 mi
10:53 pm75 °FClear.7 mph79%29.88 "Hg10 mi
9:53 pm77 °FClear.7 mph74%29.88 "Hg10 mi
8:53 pm78 °FClear.10 mph71%29.86 "Hg10 mi
7:53 pm81 °FSunny.12 mph65%29.85 "Hg10 mi
6:53 pm80 °FPartly sunny.7 mph71%29.84 "Hg10 mi
5:53 pm79 °FMore clouds than sun.8 mph72%29.83 "Hg10 mi
4:53 pm78 °FOvercast.7 mph74%29.83 "Hg10 mi
3:53 pm78 °FBroken clouds.6 mph76%29.82 "Hg10 mi
3:16 pm77 °FLight rain. Cloudy.5 mph77%29.87 "Hg10 mi
2:53 pm78 °FMostly cloudy.7 mph74%29.83 "Hg10 mi
2:17 pm77 °FLight rain. Mostly cloudy.6 mph79%29.87 "Hg7 mi
2:08 pm77 °FLight rain. Mostly cloudy.6 mph77%29.87 "Hg8 mi
1:59 pm76 °FCloudy.3 mph80%29.87 "Hg10 mi
1:34 pm75 °FMostly cloudy.No wind82%29.87 "Hg10 mi
1:20 pm75 °FLight rain. Cloudy.5 mph82%29.87 "Hg2 mi
12:53 pm75 °FLight rain. Mostly cloudy.3 mph82%29.83 "Hg10 mi
12:27 pm74 °FMostly cloudy.No wind85%29.87 "Hg7 mi
12:13 pm73 °FLight rain. Fog.3 mph88%29.88 "Hg2 mi
11:53 am72 °FFog.3 mph87%29.83 "Hg6 mi
11:34 am71 °FLight rain. Fog.No wind93%29.88 "Hg4 mi
11:12 am71 °FLight rain. Fog.3 mph90%29.87 "Hg2 mi
10:53 am72 °FFog.5 mph87%29.83 "Hg4 mi
10:34 am72 °FLight rain. Fog.3 mph87%29.87 "Hg3 mi
10:14 am72 °FFog.No wind87%29.87 "Hg4 mi
10:05 am72 °FFog.No wind87%29.87 "Hg5 mi
9:27 am71 °FMostly cloudy.No wind90%29.87 "Hg9 mi
9:12 am71 °FFog.3 mph90%29.87 "Hg2 mi
8:37 am70 °FFog.5 mph90%29.87 "Hg5 mi
8:22 am69 °FFog.5 mph93%29.87 "Hg3 mi
8:06 am69 °FLight rain. Fog.5 mph93%29.87 "Hg2 mi
7:53 am69 °FLight rain. Fog.5 mph93%29.83 "Hg1 mi
7:37 am69 °FLight rain. Fog.8 mph90%29.87 "Hg1 mi
7:20 am68 °FFog.6 mph93%29.86 "Hg4 mi
6:53 am68 °FRain. Fog.10 mph93%29.82 "Hg2 mi
5:53 am68 °FLight rain. Low clouds.10 mph90%29.82 "Hg10 mi
5:33 am68 °FLight rain. Fog.9 mph90%29.87 "Hg6 mi
5:03 am68 °FLight rain. Fog.10 mph90%29.88 "Hg3 mi
4:43 am68 °FMostly cloudy.7 mph90%29.89 "Hg10 mi
Weather by CustomWeather, © 2021

See weather overview